Time,TemperatureF,DewpointF,PressureIn,WindDirection,WindDirectionDegrees,WindSpeedMPH,WindSpeedGustMPH,Humidity,HourlyPrecipIn,Conditions,Clouds,dailyrainin,SoftwareType,DateUTC
2013-09-11 00:12:00,62.0,56.0,29.72,NE,34,2.0,-999.0,81,-99.99,,,-99.99,,2013-09-11 06:12:00,
2013-09-11 00:21:00,62.0,57.0,29.72,NE,34,2.0,-999.0,83,-99.99,,,-99.99,,2013-09-11 06:21:00,
2013-09-11 00:42:00,61.0,56.0,29.72,NE,34,1.0,-999.0,83,-99.99,,,-99.99,,2013-09-11 06:42:00,
2013-09-11 00:52:00,62.0,57.0,29.72,NE,34,1.0,-999.0,83,-99.99,,,-99.99,,2013-09-11 06:52:00,
2013-09-11 01:11:00,61.0,56.0,29.72,NE,34,1.0,-999.0,83,-99.99,,,-99.99,,2013-09-11 07:11:00,
2013-09-11 01:23:00,62.0,56.0,29.72,NE,34,1.0,-999.0,82,-99.99,,,-99.99,,2013-09-11 07:23:00,
2013-09-11 01:42:00,62.0,56.0,29.72,NE,34,1.0,-999.0,81,-99.99,,,-99.99,,2013-09-11 07:42:00,
2013-09-11 01:52:00,61.0,55.0,29.72,NE,34,1.0,-999.0,82,-99.99,,,-99.99,,2013-09-11 07:52:00,
2013-09-11 02:11:00,61.0,55.0,29.75,NE,34,3.0,-999.0,81,-99.99,,,-99.99,,2013-09-11 08:11:00,
2013-09-11 02:21:00,61.0,55.0,29.75,NE,34,3.0,-999.0,81,-99.99,,,-99.99,,2013-09-11 08:21:00,
2013-09-11 02:42:00,61.0,55.0,29.75,NE,34,2.0,-999.0,82,-99.99,,,-99.99,,2013-09-11 08:42:00,
2013-09-11 02:52:00,61.0,56.0,29.76,NE,34,2.0,-999.0,83,-99.99,,,-99.99,,2013-09-11 08:52:00,
2013-09-11 03:11:00,60.0,55.0,29.75,NE,34,0.0,-999.0,84,-99.99,,,-99.99,,2013-09-11 09:11:00,
2013-09-11 03:21:00,60.0,55.0,29.75,NE,34,0.0,-999.0,85,-99.99,,,-99.99,,2013-09-11 09:21:00,
2013-09-11 03:43:00,60.0,56.0,29.75,NE,34,0.0,-999.0,86,-99.99,,,-99.99,,2013-09-11 09:43:00,
2013-09-11 03:53:00,60.0,56.0,29.74,NE,34,0.0,-999.0,87,-99.99,,,-99.99,,2013-09-11 09:53:00,
2013-09-11 04:12:00,59.0,55.0,29.74,NE,34,0.0,-999.0,88,-99.99,,,-99.99,,2013-09-11 10:12:00,
2013-09-11 04:23:00,59.0,56.0,29.73,NE,34,0.0,-999.0,89,-99.99,,,-99.99,,2013-09-11 10:23:00,
2013-09-11 04:42:00,59.0,56.0,29.72,NE,34,0.0,-999.0,89,-99.99,,,-99.99,,2013-09-11 10:42:00,
2013-09-11 04:53:00,59.0,55.0,29.72,NE,34,0.0,-999.0,88,-99.99,,,-99.99,,2013-09-11 10:53:00,
2013-09-11 05:12:00,59.0,56.0,29.73,NE,34,0.0,-999.0,89,-99.99,,,-99.99,,2013-09-11 11:12:00,
2013-09-11 05:21:00,58.0,55.0,29.73,NE,34,0.0,-999.0,90,-99.99,,,-99.99,,2013-09-11 11:21:00,
2013-09-11 05:52:00,58.0,55.0,29.74,NE,34,0.0,-999.0,90,-99.99,,,-99.99,,2013-09-11 11:52:00,
2013-09-11 06:11:00,58.0,55.0,29.76,NE,34,0.0,-999.0,91,-99.99,,,-99.99,,2013-09-11 12:11:00,
2013-09-11 06:21:00,58.0,55.0,29.76,NE,34,0.0,-999.0,91,-99.99,,,-99.99,,2013-09-11 12:21:00,
2013-09-11 06:52:00,58.0,56.0,29.76,NE,34,0.0,-999.0,92,-99.99,,,-99.99,,2013-09-11 12:52:00,
2013-09-11 07:12:00,57.0,55.0,29.77,NE,34,0.0,-999.0,92,-99.99,,,-99.99,,2013-09-11 13:12:00,
2013-09-11 07:21:00,57.0,55.0,29.78,NE,34,0.0,-999.0,92,-99.99,,,-99.99,,2013-09-11 13:21:00,
2013-09-11 07:41:00,57.0,55.0,29.78,NE,34,0.0,-999.0,92,-99.99,,,-99.99,,2013-09-11 13:41:00,
2013-09-11 07:52:00,57.0,55.0,29.79,NE,34,0.0,-999.0,92,-99.99,,,-99.99,,2013-09-11 13:52:00,
2013-09-11 08:11:00,57.0,55.0,29.81,NE,34,0.0,-999.0,93,-99.99,,,-99.99,,2013-09-11 14:11:00,
2013-09-11 08:21:00,58.0,56.0,29.80,NE,34,0.0,-999.0,93,-99.99,,,-99.99,,2013-09-11 14:21:00,
2013-09-11 08:42:00,59.0,57.0,29.79,NE,34,0.0,-999.0,93,-99.99,,,-99.99,,2013-09-11 14:42:00,
2013-09-11 08:52:00,60.0,58.0,29.78,NE,34,0.0,-999.0,92,-99.99,,,-99.99,,2013-09-11 14:52:00,
2013-09-11 09:11:00,61.0,58.0,29.79,NE,34,0.0,-999.0,91,-99.99,,,-99.99,,2013-09-11 15:11:00,
2013-09-11 09:22:00,63.0,59.0,29.78,NE,34,0.0,-999.0,88,-99.99,,,-99.99,,2013-09-11 15:22:00,
2013-09-11 09:42:00,65.0,59.0,29.77,NE,34,0.0,-999.0,82,-99.99,,,-99.99,,2013-09-11 15:42:00,
2013-09-11 09:54:00,65.0,57.0,29.78,NE,34,0.0,-999.0,76,-99.99,,,-99.99,,2013-09-11 15:54:00,
2013-09-11 10:13:00,66.0,56.0,29.76,NE,34,0.0,-999.0,70,-99.99,,,-99.99,,2013-09-11 16:13:00,
2013-09-11 10:23:00,67.0,56.0,29.77,SSW,200,1.0,-999.0,67,-99.99,,,-99.99,,2013-09-11 16:23:00,
2013-09-11 10:52:00,68.0,55.0,29.76,SSW,200,2.0,-999.0,64,-99.99,,,-99.99,,2013-09-11 16:52:00,
2013-09-11 11:12:00,69.0,56.0,29.76,SSW,200,2.0,-999.0,63,-99.99,,,-99.99,,2013-09-11 17:12:00,
2013-09-11 11:23:00,70.0,55.0,29.76,SSW,200,2.0,-999.0,60,-99.99,,,-99.99,,2013-09-11 17:23:00,
2013-09-11 11:52:00,70.0,55.0,29.75,SSW,203,2.0,-999.0,59,-99.99,,,-99.99,,2013-09-11 17:52:00,
2013-09-11 12:12:00,71.0,54.0,29.75,SSW,203,1.0,-999.0,56,-99.99,,,-99.99,,2013-09-11 18:12:00,
2013-09-11 12:21:00,72.0,55.0,29.74,SSW,204,2.0,-999.0,55,-99.99,,,-99.99,,2013-09-11 18:21:00,
2013-09-11 12:52:00,73.0,54.0,29.74,SSW,203,2.0,-999.0,51,-99.99,,,-99.99,,2013-09-11 18:52:00,
2013-09-11 13:11:00,72.0,54.0,29.72,SSW,203,1.0,-999.0,54,-99.99,,,-99.99,,2013-09-11 19:11:00,
2013-09-11 13:21:00,74.0,55.0,29.73,SSW,205,3.0,-999.0,51,-99.99,,,-99.99,,2013-09-11 19:21:00,
2013-09-11 13:42:00,73.0,54.0,29.72,SSW,205,3.0,-999.0,51,-99.99,,,-99.99,,2013-09-11 19:42:00,
2013-09-11 13:53:00,74.0,54.0,29.71,SSW,205,1.0,-999.0,50,-99.99,,,-99.99,,2013-09-11 19:53:00,
2013-09-11 14:12:00,75.0,55.0,29.72,SSW,204,2.0,-999.0,49,-99.99,,,-99.99,,2013-09-11 20:12:00,
2013-09-11 14:21:00,75.0,53.0,29.71,SSW,196,2.0,-999.0,47,-99.99,,,-99.99,,2013-09-11 20:21:00,
2013-09-11 14:42:00,76.0,54.0,29.70,South,191,2.0,-999.0,47,-99.99,,,-99.99,,2013-09-11 20:42:00,
2013-09-11 14:52:00,76.0,52.0,29.70,ESE,104,3.0,-999.0,44,-99.99,,,-99.99,,2013-09-11 20:52:00,
2013-09-11 15:11:00,76.0,49.0,29.70,SSW,193,2.0,-999.0,39,-99.99,,,-99.99,,2013-09-11 21:11:00,
2013-09-11 15:21:00,76.0,49.0,29.70,SSW,193,2.0,-999.0,39,-99.99,,,-99.99,,2013-09-11 21:21:00,
2013-09-11 15:44:00,77.0,51.0,29.69,ENE,68,2.0,-999.0,40,-99.99,,,-99.99,,2013-09-11 21:44:00,
2013-09-11 15:54:00,76.0,49.0,29.69,South,188,2.0,-999.0,39,-99.99,,,-99.99,,2013-09-11 21:54:00,
2013-09-11 16:13:00,77.0,51.0,29.68,SSW,195,2.0,-999.0,40,-99.99,,,-99.99,,2013-09-11 22:13:00,
2013-09-11 16:24:00,77.0,49.0,29.67,SSW,195,1.0,-999.0,37,-99.99,,,-99.99,,2013-09-11 22:24:00,
2013-09-11 16:54:00,79.0,49.0,29.66,ENE,57,1.0,-999.0,35,-99.99,,,-99.99,,2013-09-11 22:54:00,
2013-09-11 17:12:00,78.0,49.0,29.65,NW,326,0.0,-999.0,36,-99.99,,,-99.99,,2013-09-11 23:12:00,
2013-09-11 17:22:00,78.0,47.0,29.65,NNW,328,2.0,-999.0,34,-99.99,,,-99.99,,2013-09-11 23:22:00,
2013-09-11 17:42:00,78.0,46.0,29.66,NW,326,2.0,-999.0,32,-99.99,,,-99.99,,2013-09-11 23:42:00,
2013-09-11 17:53:00,78.0,45.0,29.66,NW,326,3.0,-999.0,31,-99.99,,,-99.99,,2013-09-11 23:53:00,
2013-09-11 18:11:00,78.0,45.0,29.67,NW,326,2.0,-999.0,31,-99.99,,,-99.99,,2013-09-12 00:11:00,
2013-09-11 18:21:00,77.0,43.0,29.66,NW,326,2.0,-999.0,30,-99.99,,,-99.99,,2013-09-12 00:21:00,
2013-09-11 18:42:00,77.0,46.0,29.67,NW,326,1.0,-999.0,33,-99.99,,,-99.99,,2013-09-12 00:42:00,
2013-09-11 18:52:00,77.0,46.0,29.66,NW,326,0.0,-999.0,33,-99.99,,,-99.99,,2013-09-12 00:52:00,
2013-09-11 19:11:00,76.0,46.0,29.66,NW,326,0.0,-999.0,34,-99.99,,,-99.99,,2013-09-12 01:11:00,
2013-09-11 19:22:00,76.0,46.0,29.66,NW,326,0.0,-999.0,35,-99.99,,,-99.99,,2013-09-12 01:22:00,
2013-09-11 19:41:00,73.0,48.0,29.68,NW,326,0.0,-999.0,41,-99.99,,,-99.99,,2013-09-12 01:41:00,
2013-09-11 19:52:00,72.0,49.0,29.69,NW,326,0.0,-999.0,45,-99.99,,,-99.99,,2013-09-12 01:52:00,
2013-09-11 20:12:00,70.0,49.0,29.68,NW,326,0.0,-999.0,48,-99.99,,,-99.99,,2013-09-12 02:12:00,
2013-09-11 20:21:00,69.0,51.0,29.70,NW,326,0.0,-999.0,52,-99.99,,,-99.99,,2013-09-12 02:21:00,
2013-09-11 21:11:00,64.0,54.0,29.72,NW,326,1.0,-999.0,70,-99.99,,,-99.99,,2013-09-12 03:11:00,
2013-09-11 21:21:00,63.0,54.0,29.72,NW,326,3.0,-999.0,72,-99.99,,,-99.99,,2013-09-12 03:21:00,
2013-09-11 21:55:00,60.0,53.0,29.73,NW,326,1.0,-999.0,77,-99.99,,,-99.99,,2013-09-12 03:55:00,
2013-09-11 22:14:00,60.0,53.0,29.73,NW,326,1.0,-999.0,77,-99.99,,,-99.99,,2013-09-12 04:14:00,
2013-09-11 22:23:00,59.0,52.0,29.72,NW,326,2.0,-999.0,79,-99.99,,,-99.99,,2013-09-12 04:23:00,
2013-09-11 22:43:00,59.0,52.0,29.73,NW,326,1.0,-999.0,79,-99.99,,,-99.99,,2013-09-12 04:43:00,
2013-09-11 22:54:00,60.0,53.0,29.73,NW,326,2.0,-999.0,77,-99.99,,,-99.99,,2013-09-12 04:54:00,
2013-09-11 23:13:00,59.0,52.0,29.72,NW,326,2.0,-999.0,79,-99.99,,,-99.99,,2013-09-12 05:13:00,
2013-09-11 23:22:00,59.0,53.0,29.72,NW,326,1.0,-999.0,80,-99.99,,,-99.99,,2013-09-12 05:22:00,
2013-09-11 23:43:00,60.0,52.0,29.74,NW,326,2.0,-999.0,76,-99.99,,,-99.99,,2013-09-12 05:43:00,
2013-09-11 23:53:00,59.0,51.0,29.72,NW,326,2.0,-999.0,76,-99.99,,,-99.99,,2013-09-12 05:53:00,